createdAt,value
2019-03-16T00:01:23.622Z,1.17
2019-03-16T00:03:53.970Z,1.60
2019-03-16T00:06:24.314Z,1.47
2019-03-16T00:08:54.650Z,1.80
2019-03-16T00:11:26.464Z,1.37
2019-03-16T00:13:56.821Z,1.70
2019-03-16T00:16:27.169Z,1.60
2019-03-16T00:18:57.519Z,1.57
2019-03-16T00:21:27.944Z,1.60
2019-03-16T00:23:58.309Z,1.90
2019-03-16T00:26:28.660Z,1.43
2019-03-16T00:28:58.988Z,1.80
2019-03-16T00:31:29.320Z,1.40
2019-03-16T00:33:59.660Z,1.50
2019-03-16T00:36:30.002Z,1.30
2019-03-16T00:39:00.334Z,1.70
2019-03-16T00:41:30.680Z,1.87
2019-03-16T00:44:01.031Z,1.20
2019-03-16T00:46:31.411Z,2.20
2019-03-16T00:49:01.691Z,1.60
2019-03-16T00:51:32.043Z,2.43
2019-03-16T00:54:02.408Z,1.20
2019-03-16T00:56:32.695Z,1.43
2019-03-16T00:59:03.039Z,1.57
2019-03-16T01:01:33.372Z,1.30
2019-03-16T01:04:03.704Z,1.60
2019-03-16T01:06:34.044Z,1.60
2019-03-16T01:09:07.549Z,1.13
2019-03-16T01:11:37.888Z,1.03
2019-03-16T01:14:08.206Z,1.90
2019-03-16T01:16:39.635Z,1.70
2019-03-16T01:19:09.984Z,1.67
2019-03-16T01:21:40.325Z,1.43
2019-03-16T01:24:10.661Z,1.73
2019-03-16T01:26:40.940Z,1.67
2019-03-16T01:29:11.281Z,1.40
2019-03-16T01:31:41.635Z,1.60
2019-03-16T01:34:11.962Z,1.33
2019-03-16T01:36:42.290Z,1.23
2019-03-16T01:39:12.569Z,1.60
2019-03-16T01:41:42.932Z,1.70
2019-03-16T01:44:13.262Z,1.17
2019-03-16T01:46:43.624Z,1.37
2019-03-16T01:49:13.885Z,1.40
2019-03-16T01:51:44.263Z,1.50
2019-03-16T01:54:14.577Z,1.67
2019-03-16T01:56:44.937Z,1.50
2019-03-16T01:59:15.274Z,2.00
2019-03-16T02:01:45.608Z,1.70
2019-03-16T02:04:15.952Z,1.90
2019-03-16T02:06:46.240Z,1.50
2019-03-16T02:09:16.564Z,1.37
2019-03-16T02:11:46.914Z,2.17
2019-03-16T02:14:17.194Z,1.50
2019-03-16T02:16:48.514Z,2.20
2019-03-16T02:19:19.037Z,1.30
2019-03-16T02:21:49.423Z,1.20
2019-03-16T02:24:19.845Z,1.20
2019-03-16T02:26:50.197Z,1.83
2019-03-16T02:29:20.557Z,1.93
2019-03-16T02:31:50.886Z,1.57
2019-03-16T02:34:21.230Z,1.47
2019-03-16T02:36:52.753Z,1.70
2019-03-16T02:39:23.100Z,1.23
2019-03-16T02:41:53.457Z,2.00
2019-03-16T02:44:23.726Z,2.13
2019-03-16T02:46:54.060Z,2.00
2019-03-16T02:49:24.401Z,1.33
2019-03-16T02:51:54.764Z,1.50
2019-03-16T02:54:25.128Z,1.60
2019-03-16T02:56:55.394Z,1.87
2019-03-16T02:59:25.756Z,1.80
2019-03-16T03:01:57.076Z,1.50
2019-03-16T03:04:27.450Z,1.83
2019-03-16T03:06:57.728Z,1.50
2019-03-16T03:09:28.017Z,1.40
2019-03-16T03:11:58.358Z,1.60
2019-03-16T03:14:30.311Z,1.53
2019-03-16T03:17:00.683Z,1.23
2019-03-16T03:19:31.034Z,1.80
2019-03-16T03:22:01.384Z,1.63
2019-03-16T03:24:31.734Z,1.30
2019-03-16T03:27:02.238Z,1.27
2019-03-16T03:29:32.596Z,1.43
2019-03-16T03:32:02.948Z,1.70
2019-03-16T03:34:33.414Z,1.33
2019-03-16T03:37:03.687Z,2.00
2019-03-16T03:39:34.037Z,1.70
2019-03-16T03:42:04.386Z,1.97
2019-03-16T03:44:34.713Z,1.40
2019-03-16T03:47:05.069Z,2.17
2019-03-16T03:49:35.575Z,1.33
2019-03-16T03:52:06.990Z,1.43
2019-03-16T03:54:37.341Z,2.43
2019-03-16T03:57:09.150Z,1.53
2019-03-16T03:59:39.499Z,1.63
2019-03-16T04:02:09.852Z,1.77
2019-03-16T04:04:40.195Z,1.70
2019-03-16T04:07:10.609Z,1.70
2019-03-16T04:09:40.957Z,1.50
2019-03-16T04:12:11.340Z,1.93
2019-03-16T04:14:41.883Z,1.70
2019-03-16T04:17:12.374Z,1.70
2019-03-16T04:19:42.753Z,1.77
2019-03-16T04:22:13.062Z,1.20
2019-03-16T04:24:45.348Z,2.10
2019-03-16T04:27:16.740Z,1.57
2019-03-16T04:29:47.421Z,1.30
2019-03-16T04:32:17.776Z,1.47
2019-03-16T04:34:48.155Z,1.80
2019-03-16T04:37:18.523Z,2.07
2019-03-16T04:39:48.866Z,1.30
2019-03-16T04:42:19.219Z,1.60
2019-03-16T04:44:49.541Z,1.47
2019-03-16T04:47:19.895Z,1.97
2019-03-16T04:49:50.239Z,2.10
2019-03-16T04:52:20.588Z,2.00
2019-03-16T04:54:51.242Z,2.20
2019-03-16T04:57:21.597Z,1.90
2019-03-16T04:59:51.932Z,1.97
2019-03-16T05:02:23.454Z,1.97
2019-03-16T05:04:53.778Z,1.70
2019-03-16T05:07:24.164Z,1.60
2019-03-16T05:09:54.510Z,1.97
2019-03-16T05:12:24.849Z,1.70
2019-03-16T05:14:55.195Z,2.20
2019-03-16T05:17:25.534Z,1.93
2019-03-16T05:19:55.858Z,1.83
2019-03-16T05:22:26.207Z,1.60
2019-03-16T05:24:56.584Z,2.00
2019-03-16T05:27:26.924Z,1.90
2019-03-16T05:29:57.359Z,2.20
2019-03-16T05:32:27.877Z,1.77
2019-03-16T05:34:59.136Z,2.00
2019-03-16T05:37:29.628Z,1.80
2019-03-16T05:39:59.975Z,1.77
2019-03-16T05:42:30.322Z,1.63
2019-03-16T05:45:00.653Z,1.80
2019-03-16T05:47:31.010Z,2.20
2019-03-16T05:50:01.380Z,2.20
2019-03-16T05:52:32.798Z,2.03
2019-03-16T05:55:03.269Z,1.67
2019-03-16T05:57:33.687Z,1.80
2019-03-16T06:00:09.957Z,1.83
2019-03-16T06:02:40.883Z,1.97
2019-03-16T06:05:11.597Z,2.37
2019-03-16T06:07:42.037Z,1.53
2019-03-16T06:10:12.763Z,3.57
2019-03-16T06:12:46.296Z,4.43
2019-03-16T06:15:15.238Z,3.03
2019-03-16T06:17:45.635Z,3.10
2019-03-16T06:20:16.099Z,1.87
2019-03-16T06:22:46.430Z,2.07
2019-03-16T06:25:16.784Z,1.80
2019-03-16T06:27:47.059Z,2.00
2019-03-16T06:30:20.655Z,1.30
2019-03-16T06:32:49.536Z,1.57
2019-03-16T06:35:24.986Z,1.60
2019-03-16T06:37:51.951Z,2.10
2019-03-16T06:40:22.300Z,2.00
2019-03-16T06:42:52.662Z,1.67
2019-03-16T06:45:22.938Z,1.70
2019-03-16T06:47:54.760Z,2.27
2019-03-16T06:50:25.549Z,1.87
2019-03-16T06:52:55.909Z,2.27
2019-03-16T06:55:27.864Z,2.23
2019-03-16T06:57:58.296Z,2.23
2019-03-16T07:00:29.313Z,2.00
2019-03-16T07:02:59.645Z,2.13
2019-03-16T07:05:38.159Z,2.23
2019-03-16T07:08:02.731Z,1.80
2019-03-16T07:10:33.073Z,1.87
2019-03-16T07:13:03.522Z,2.10
2019-03-16T07:15:34.619Z,2.23
2019-03-16T07:18:05.199Z,2.77
2019-03-16T07:20:35.531Z,2.50
2019-03-16T07:23:05.863Z,2.30
2019-03-16T07:25:36.208Z,1.93
2019-03-16T07:28:06.541Z,2.23
2019-03-16T07:30:37.317Z,3.13
2019-03-16T07:33:07.841Z,2.53
2019-03-16T07:35:38.206Z,2.37
2019-03-16T07:38:08.587Z,2.90
2019-03-16T07:40:39.714Z,4.50
2019-03-16T07:43:10.851Z,2.33
2019-03-16T07:45:41.205Z,1.80
2019-03-16T07:48:11.774Z,3.20
2019-03-16T07:50:43.191Z,3.03
2019-03-16T07:53:13.868Z,2.37
2019-03-16T07:55:44.163Z,2.27
2019-03-16T07:58:14.513Z,2.23
2019-03-16T08:00:45.590Z,2.67
2019-03-16T08:03:16.592Z,2.20
2019-03-16T08:05:47.438Z,2.97
2019-03-16T08:08:17.883Z,2.77
2019-03-16T08:10:48.297Z,2.40
2019-03-16T08:13:18.680Z,2.40
2019-03-16T08:15:49.038Z,2.77
2019-03-16T08:18:19.389Z,2.67
2019-03-16T08:20:49.744Z,2.47
2019-03-16T08:23:20.148Z,2.00
2019-03-16T08:25:50.482Z,2.30
2019-03-16T08:28:20.892Z,2.27
2019-03-16T08:30:51.275Z,2.07
2019-03-16T08:33:21.710Z,3.67
2019-03-16T08:35:52.100Z,3.27
2019-03-16T08:38:22.660Z,2.23
2019-03-16T08:40:52.975Z,2.33
2019-03-16T08:43:23.327Z,2.30
2019-03-16T08:45:53.787Z,2.70
2019-03-16T08:48:24.204Z,2.47
2019-03-16T08:50:54.721Z,2.30
2019-03-16T08:53:25.103Z,2.83
2019-03-16T08:55:57.172Z,2.17
2019-03-16T08:58:27.570Z,2.30
2019-03-16T09:00:57.953Z,2.37
2019-03-16T09:03:28.562Z,2.60
2019-03-16T09:05:58.944Z,9.50
2019-03-16T09:08:29.504Z,3.57
2019-03-16T09:10:59.881Z,2.67
2019-03-16T09:13:30.253Z,3.03
2019-03-16T09:16:00.644Z,1.90
2019-03-16T09:18:31.151Z,2.97
2019-03-16T09:21:03.255Z,2.23
2019-03-16T09:23:33.709Z,2.37
2019-03-16T09:26:04.141Z,1.80
2019-03-16T09:28:35.561Z,1.87
2019-03-16T09:31:06.118Z,1.90
2019-03-16T09:33:36.560Z,2.60
2019-03-16T09:36:07.059Z,2.47
2019-03-16T09:38:37.487Z,2.23
2019-03-16T09:41:07.893Z,2.17
2019-03-16T09:43:38.270Z,2.07
2019-03-16T09:46:08.663Z,2.20
2019-03-16T09:48:39.031Z,2.10
2019-03-16T09:51:09.641Z,2.27
2019-03-16T09:53:41.493Z,2.43
2019-03-16T09:56:11.843Z,2.67
2019-03-16T09:58:43.834Z,2.47
2019-03-16T10:01:15.484Z,2.47
2019-03-16T10:03:46.170Z,1.90
2019-03-16T10:06:17.140Z,2.87
2019-03-16T10:08:47.566Z,2.37
2019-03-16T10:11:17.913Z,1.97
2019-03-16T10:13:48.300Z,1.97
2019-03-16T10:16:18.714Z,2.23
2019-03-16T10:18:49.090Z,3.77
2019-03-16T10:21:19.801Z,2.20
2019-03-16T10:23:50.198Z,3.00
2019-03-16T10:26:20.539Z,4.27
2019-03-16T10:28:51.084Z,2.50
2019-03-16T10:31:21.543Z,2.60
2019-03-16T10:33:51.871Z,2.27
2019-03-16T10:36:22.268Z,7.03
2019-03-16T10:38:52.630Z,4.17
2019-03-16T10:41:22.981Z,2.10
2019-03-16T10:43:53.343Z,1.60
2019-03-16T10:46:23.709Z,2.40
2019-03-16T10:48:55.755Z,2.00
2019-03-16T10:51:27.688Z,2.67
2019-03-16T10:53:58.255Z,2.63
2019-03-16T10:56:28.647Z,4.17
2019-03-16T10:58:59.406Z,3.40
2019-03-16T11:01:30.534Z,1.70
2019-03-16T11:04:01.533Z,5.00
2019-03-16T11:06:31.984Z,3.90
2019-03-16T11:09:02.867Z,2.60
2019-03-16T11:11:33.237Z,3.10
2019-03-16T11:14:04.637Z,1.97
2019-03-16T11:16:35.017Z,1.80
2019-03-16T11:19:05.384Z,6.97
2019-03-16T11:21:35.753Z,2.33
2019-03-16T11:24:06.119Z,7.10
2019-03-16T11:26:36.469Z,2.33
2019-03-16T11:29:09.325Z,2.53
2019-03-16T11:31:38.885Z,4.40
2019-03-16T11:34:09.528Z,2.90
2019-03-16T11:36:40.442Z,2.50
2019-03-16T11:39:10.950Z,2.27
2019-03-16T11:41:41.323Z,2.20
2019-03-16T11:44:12.655Z,2.43
2019-03-16T11:46:43.004Z,2.17
2019-03-16T11:49:13.372Z,2.70
2019-03-16T11:51:43.775Z,2.23
2019-03-16T11:54:13.969Z,2.30
2019-03-16T11:56:44.348Z,2.60
2019-03-16T11:59:21.437Z,2.40
2019-03-16T12:01:46.706Z,2.10
2019-03-16T12:04:17.082Z,2.03
2019-03-16T12:06:47.821Z,2.30
2019-03-16T12:09:18.173Z,2.73
2019-03-16T12:11:48.506Z,2.57
2019-03-16T12:14:18.864Z,3.53
2019-03-16T12:16:49.289Z,2.60
2019-03-16T12:19:19.580Z,2.40
2019-03-16T12:21:49.940Z,2.37
2019-03-16T12:24:20.240Z,2.10
2019-03-16T12:26:50.568Z,2.17
2019-03-16T12:29:33.103Z,2.20
2019-03-16T12:31:53.558Z,2.63
2019-03-16T12:34:23.993Z,2.80
2019-03-16T12:36:54.401Z,3.00
2019-03-16T12:39:24.736Z,3.10
2019-03-16T12:41:55.099Z,3.23
2019-03-16T12:44:25.448Z,2.67
2019-03-16T12:46:55.845Z,3.27
2019-03-16T12:49:26.204Z,2.57
2019-03-16T12:51:56.654Z,3.17
2019-03-16T12:54:27.094Z,2.60
2019-03-16T12:56:57.438Z,3.17
2019-03-16T12:59:27.740Z,2.80
2019-03-16T13:01:58.103Z,2.20
2019-03-16T13:04:28.497Z,2.87
2019-03-16T13:06:58.856Z,1.97
2019-03-16T13:09:29.221Z,3.00
2019-03-16T13:11:59.694Z,3.53
2019-03-16T13:14:30.072Z,2.17
2019-03-16T13:17:00.420Z,3.10
2019-03-16T13:19:30.977Z,2.03
2019-03-16T13:22:01.366Z,3.43
2019-03-16T13:24:31.713Z,2.20
2019-03-16T13:27:02.426Z,2.97
2019-03-16T13:29:32.863Z,2.13
2019-03-16T13:32:03.231Z,4.27
2019-03-16T13:34:35.224Z,3.30
2019-03-16T13:37:05.575Z,2.10
2019-03-16T13:39:35.949Z,2.67
2019-03-16T13:42:06.292Z,2.23
2019-03-16T13:44:37.015Z,2.33
2019-03-16T13:47:07.409Z,1.80
2019-03-16T13:49:38.169Z,8.43
2019-03-16T13:52:08.547Z,2.80
2019-03-16T13:54:39.202Z,1.90
2019-03-16T13:57:09.559Z,2.27
2019-03-16T13:59:39.939Z,3.87
2019-03-16T14:02:10.265Z,2.30
2019-03-16T14:04:41.076Z,1.57
2019-03-16T14:07:12.945Z,2.37
2019-03-16T14:09:43.691Z,2.37
2019-03-16T14:12:14.268Z,2.43
2019-03-16T14:14:44.952Z,2.63
2019-03-16T14:17:16.620Z,3.10
2019-03-16T14:19:47.422Z,2.60
2019-03-16T14:22:19.459Z,7.17
2019-03-16T14:24:49.861Z,2.60
2019-03-16T14:27:20.339Z,3.17
2019-03-16T14:29:51.589Z,2.20
2019-03-16T14:32:23.701Z,2.53
2019-03-16T14:34:54.417Z,3.50
2019-03-16T14:37:25.026Z,3.13
2019-03-16T14:39:55.693Z,3.10
2019-03-16T14:42:26.356Z,1.80
2019-03-16T14:44:57.956Z,3.13
2019-03-16T14:47:28.709Z,2.17
2019-03-16T14:49:59.308Z,4.70
2019-03-16T14:52:30.323Z,1.63
2019-03-16T14:55:01.010Z,2.50
2019-03-16T14:57:31.443Z,2.20
2019-03-16T15:00:01.935Z,2.53
2019-03-16T15:02:33.988Z,2.30
2019-03-16T15:05:05.853Z,2.00
2019-03-16T15:07:36.385Z,2.00
2019-03-16T15:10:11.923Z,2.73
2019-03-16T15:12:42.507Z,2.47
2019-03-16T15:15:18.079Z,2.43
2019-03-16T15:17:48.861Z,1.93
2019-03-16T15:20:19.479Z,2.07
2019-03-16T15:22:49.995Z,2.33
2019-03-16T15:25:22.360Z,3.50
2019-03-16T15:27:52.970Z,1.70
2019-03-16T15:30:23.503Z,2.30
2019-03-16T15:32:54.169Z,1.90
2019-03-16T15:35:24.803Z,2.53
2019-03-16T15:37:56.002Z,1.83
2019-03-16T15:40:26.794Z,2.20
2019-03-16T15:42:57.398Z,2.10
2019-03-16T15:45:31.801Z,1.93
2019-03-16T15:48:02.223Z,2.00
2019-03-16T15:50:32.728Z,4.77
2019-03-16T15:53:03.247Z,3.80
2019-03-16T15:55:34.042Z,2.33
2019-03-16T15:58:08.417Z,1.97
2019-03-16T16:00:36.748Z,1.97
2019-03-16T16:03:09.212Z,2.27
2019-03-16T16:05:39.429Z,2.33
2019-03-16T16:08:09.931Z,2.80
2019-03-16T16:10:40.830Z,2.90
2019-03-16T16:13:11.318Z,2.27
2019-03-16T16:15:41.647Z,2.20
2019-03-16T16:18:12.069Z,2.70
2019-03-16T16:20:42.436Z,2.30
2019-03-16T16:23:12.815Z,2.30
2019-03-16T16:25:43.150Z,2.30
2019-03-16T16:28:15.341Z,2.20
2019-03-16T16:30:46.208Z,1.90
2019-03-16T16:33:16.856Z,1.83
2019-03-16T16:35:48.402Z,1.60
2019-03-16T16:38:18.726Z,1.53
2019-03-16T16:40:49.076Z,1.20
2019-03-16T16:43:20.595Z,1.40
2019-03-16T16:45:51.005Z,1.33
2019-03-16T16:48:21.408Z,1.83
2019-03-16T16:50:51.931Z,1.70
2019-03-16T16:53:22.265Z,1.97
2019-03-16T16:55:52.698Z,1.80
2019-03-16T16:58:23.040Z,1.80
2019-03-16T17:00:53.390Z,1.53
2019-03-16T17:03:23.564Z,1.60
2019-03-16T17:05:54.075Z,1.73
2019-03-16T17:08:24.489Z,1.70
2019-03-16T17:10:56.057Z,2.20
2019-03-16T17:13:26.417Z,1.60
2019-03-16T17:15:57.812Z,1.90
2019-03-16T17:18:28.147Z,1.53
2019-03-16T17:20:58.492Z,1.33
2019-03-16T17:23:28.866Z,1.90
2019-03-16T17:25:59.293Z,1.30
2019-03-16T17:28:29.682Z,3.80
2019-03-16T17:31:02.858Z,5.00
2019-03-16T17:33:33.441Z,6.07
2019-03-16T17:36:03.843Z,4.30
2019-03-16T17:38:34.308Z,3.83
2019-03-16T17:41:04.717Z,4.20
2019-03-16T17:43:35.090Z,3.67
2019-03-16T17:46:05.521Z,3.80
2019-03-16T17:48:35.914Z,3.83
2019-03-16T17:51:06.467Z,5.10
2019-03-16T17:53:37.787Z,8.57
2019-03-16T17:56:08.138Z,9.03
2019-03-16T17:58:38.470Z,7.93
2019-03-16T18:01:09.797Z,7.20
2019-03-16T18:03:40.376Z,7.27
2019-03-16T18:06:10.805Z,24.37
2019-03-16T18:08:41.263Z,39.40
2019-03-16T18:11:13.710Z,38.37
2019-03-16T18:13:44.078Z,37.73
2019-03-16T18:16:14.426Z,44.13
2019-03-16T18:18:44.985Z,24.23
2019-03-16T18:21:15.617Z,21.63
2019-03-16T18:23:45.984Z,20.07
2019-03-16T18:26:16.482Z,34.97
2019-03-16T18:28:47.592Z,35.90
2019-03-16T18:31:17.902Z,34.80
2019-03-16T18:33:48.250Z,25.17
2019-03-16T18:36:18.638Z,26.43
2019-03-16T18:38:49.184Z,26.57
2019-03-16T18:41:19.557Z,29.53
2019-03-16T18:43:49.951Z,44.43
2019-03-16T18:46:20.422Z,43.13
2019-03-16T18:48:50.713Z,27.30
2019-03-16T18:51:23.786Z,20.50
2019-03-16T18:53:54.142Z,18.40
2019-03-16T18:56:24.486Z,20.13
2019-03-16T18:58:54.854Z,21.40
2019-03-16T19:01:25.223Z,19.30
2019-03-16T19:03:55.588Z,17.10
2019-03-16T19:06:27.462Z,15.47
2019-03-16T19:08:57.820Z,15.10
2019-03-16T19:11:28.482Z,16.80
2019-03-16T19:13:58.866Z,21.27
2019-03-16T19:16:29.277Z,28.77
2019-03-16T19:18:59.805Z,25.83
2019-03-16T19:21:30.370Z,23.47
2019-03-16T19:24:00.771Z,24.20
2019-03-16T19:26:33.877Z,20.03
2019-03-16T19:29:04.302Z,17.33
2019-03-16T19:31:36.110Z,19.27
2019-03-16T19:34:06.481Z,16.53
2019-03-16T19:36:36.818Z,15.87
2019-03-16T19:39:07.391Z,18.50
2019-03-16T19:41:37.782Z,12.87
2019-03-16T19:44:08.458Z,12.80
2019-03-16T19:46:38.820Z,12.33
2019-03-16T19:49:09.740Z,12.57
2019-03-16T19:51:40.194Z,14.30
2019-03-16T19:54:11.202Z,13.70
2019-03-16T19:56:41.838Z,13.33
2019-03-16T19:59:12.353Z,15.87
2019-03-16T20:01:42.914Z,11.40
2019-03-16T20:04:13.370Z,12.70
2019-03-16T20:06:44.887Z,14.17
2019-03-16T20:09:16.124Z,14.57
2019-03-16T20:11:47.071Z,13.73
2019-03-16T20:14:18.477Z,14.03
2019-03-16T20:16:48.806Z,18.17
2019-03-16T20:19:19.673Z,18.53
2019-03-16T20:21:50.246Z,18.40
2019-03-16T20:24:21.251Z,11.00
2019-03-16T20:26:52.433Z,10.20
2019-03-16T20:29:23.422Z,8.73
2019-03-16T20:31:57.632Z,10.33
2019-03-16T20:34:31.869Z,6.87
2019-03-16T20:37:03.011Z,7.93
2019-03-16T20:39:33.744Z,8.00
2019-03-16T20:42:04.232Z,6.50
2019-03-16T20:44:34.992Z,6.77
2019-03-16T20:47:05.737Z,6.67
2019-03-16T20:49:36.628Z,6.27
2019-03-16T20:52:08.106Z,5.50
2019-03-16T20:54:39.006Z,5.47
2019-03-16T20:57:09.366Z,5.87
2019-03-16T20:59:41.444Z,5.37
2019-03-16T21:02:11.914Z,5.60
2019-03-16T21:04:42.879Z,5.33
2019-03-16T21:07:13.601Z,5.57
2019-03-16T21:09:44.469Z,6.20
2019-03-16T21:12:15.000Z,6.60
2019-03-16T21:14:46.279Z,6.03
2019-03-16T21:17:17.294Z,6.33
2019-03-16T21:19:47.879Z,7.17
2019-03-16T21:22:20.285Z,6.10
2019-03-16T21:24:51.240Z,6.27
2019-03-16T21:27:22.052Z,6.63
2019-03-16T21:29:54.725Z,6.70
2019-03-16T21:32:25.790Z,7.03
2019-03-16T21:34:57.704Z,7.80
2019-03-16T21:37:28.088Z,7.30
2019-03-16T21:39:58.440Z,7.63
2019-03-16T21:42:28.798Z,8.07
2019-03-16T21:44:59.209Z,11.73
2019-03-16T21:47:32.643Z,11.20
2019-03-16T21:50:03.006Z,9.60
2019-03-16T21:52:34.240Z,7.43
2019-03-16T21:55:07.332Z,8.13
2019-03-16T21:57:37.711Z,7.70
2019-03-16T22:00:18.350Z,8.53
2019-03-16T22:02:48.740Z,10.50
2019-03-16T22:05:19.141Z,9.60
2019-03-16T22:07:49.967Z,9.10
2019-03-16T22:10:20.387Z,9.00
2019-03-16T22:12:50.968Z,9.30
2019-03-16T22:15:21.510Z,9.97
2019-03-16T22:17:52.476Z,10.73
2019-03-16T22:20:22.935Z,9.87
2019-03-16T22:22:54.378Z,10.20
2019-03-16T22:25:24.758Z,12.43
2019-03-16T22:27:55.151Z,13.13
2019-03-16T22:30:25.728Z,12.27
2019-03-16T22:32:56.114Z,11.27
2019-03-16T22:35:26.502Z,10.37
2019-03-16T22:37:58.220Z,11.17
2019-03-16T22:40:28.580Z,10.97
2019-03-16T22:42:58.957Z,10.83
2019-03-16T22:45:29.323Z,12.47
2019-03-16T22:47:59.679Z,23.50
2019-03-16T22:50:30.620Z,24.20
2019-03-16T22:53:00.965Z,14.13
2019-03-16T22:55:31.388Z,10.00
2019-03-16T22:58:01.777Z,10.53
2019-03-16T23:00:43.060Z,10.53
2019-03-16T23:03:13.558Z,10.17
2019-03-16T23:05:43.929Z,10.10
2019-03-16T23:08:14.287Z,10.10
2019-03-16T23:10:44.624Z,9.77
2019-03-16T23:13:14.960Z,10.43
2019-03-16T23:15:45.340Z,9.50
2019-03-16T23:18:15.673Z,9.73
2019-03-16T23:20:46.057Z,16.47
2019-03-16T23:23:16.455Z,27.00
2019-03-16T23:25:46.768Z,20.67
2019-03-16T23:28:17.138Z,13.50
2019-03-16T23:30:47.629Z,12.60
2019-03-16T23:33:17.995Z,12.30
2019-03-16T23:35:48.429Z,11.93
2019-03-16T23:38:18.788Z,11.13
2019-03-16T23:40:49.087Z,13.20
2019-03-16T23:43:19.432Z,11.80
2019-03-16T23:45:49.832Z,10.60
2019-03-16T23:48:20.181Z,10.87
2019-03-16T23:50:51.242Z,11.40
2019-03-16T23:53:21.594Z,9.63
2019-03-16T23:55:51.921Z,11.70
2019-03-16T23:58:22.357Z,10.07
